sensor_id;sensor_type;location;lat;lon;timestamp;P1;durP1;ratioP1;P2;durP2;ratioP2
20008;SDS011;10165;42.662;23.260;2022-11-20T00:00:56;5.83;;;1.80;;
20008;SDS011;10165;42.662;23.260;2022-11-20T00:03:22;1.10;;;1.00;;
20008;SDS011;10165;42.662;23.260;2022-11-20T00:05:49;1.17;;;0.90;;
20008;SDS011;10165;42.662;23.260;2022-11-20T00:08:16;0.90;;;0.90;;
20008;SDS011;10165;42.662;23.260;2022-11-20T00:10:42;3.53;;;1.40;;
20008;SDS011;10165;42.662;23.260;2022-11-20T00:13:09;3.60;;;1.90;;
20008;SDS011;10165;42.662;23.260;2022-11-20T00:15:36;1.47;;;1.37;;
20008;SDS011;10165;42.662;23.260;2022-11-20T00:18:03;2.80;;;1.10;;
20008;SDS011;10165;42.662;23.260;2022-11-20T00:20:29;1.57;;;0.90;;
20008;SDS011;10165;42.662;23.260;2022-11-20T00:22:56;3.57;;;1.10;;
20008;SDS011;10165;42.662;23.260;2022-11-20T00:25:23;2.60;;;1.00;;
20008;SDS011;10165;42.662;23.260;2022-11-20T00:27:50;2.33;;;1.20;;
20008;SDS011;10165;42.662;23.260;2022-11-20T00:30:16;2.90;;;0.97;;
20008;SDS011;10165;42.662;23.260;2022-11-20T00:32:43;0.80;;;0.80;;
20008;SDS011;10165;42.662;23.260;2022-11-20T00:35:10;1.10;;;1.00;;
20008;SDS011;10165;42.662;23.260;2022-11-20T00:37:36;4.60;;;0.97;;
20008;SDS011;10165;42.662;23.260;2022-11-20T00:40:03;1.77;;;1.20;;
20008;SDS011;10165;42.662;23.260;2022-11-20T00:42:30;5.03;;;1.30;;
20008;SDS011;10165;42.662;23.260;2022-11-20T00:44:58;2.80;;;1.37;;
20008;SDS011;10165;42.662;23.260;2022-11-20T00:47:25;2.80;;;1.13;;
20008;SDS011;10165;42.662;23.260;2022-11-20T00:49:52;1.30;;;1.00;;
20008;SDS011;10165;42.662;23.260;2022-11-20T00:52:18;2.03;;;1.40;;
20008;SDS011;10165;42.662;23.260;2022-11-20T00:54:45;2.50;;;1.33;;
20008;SDS011;10165;42.662;23.260;2022-11-20T00:57:12;1.60;;;1.10;;
20008;SDS011;10165;42.662;23.260;2022-11-20T00:59:38;1.13;;;0.90;;
20008;SDS011;10165;42.662;23.260;2022-11-20T01:02:05;7.93;;;1.37;;
20008;SDS011;10165;42.662;23.260;2022-11-20T01:04:32;1.27;;;1.13;;
20008;SDS011;10165;42.662;23.260;2022-11-20T01:06:58;1.10;;;1.00;;
20008;SDS011;10165;42.662;23.260;2022-11-20T01:09:25;1.03;;;1.00;;
20008;SDS011;10165;42.662;23.260;2022-11-20T01:11:52;4.53;;;1.33;;
20008;SDS011;10165;42.662;23.260;2022-11-20T01:14:19;1.23;;;1.03;;
20008;SDS011;10165;42.662;23.260;2022-11-20T01:16:47;1.50;;;1.03;;
20008;SDS011;10165;42.662;23.260;2022-11-20T01:19:16;3.97;;;1.30;;
20008;SDS011;10165;42.662;23.260;2022-11-20T01:21:46;4.10;;;1.47;;
20008;SDS011;10165;42.662;23.260;2022-11-20T01:24:17;2.30;;;1.07;;
20008;SDS011;10165;42.662;23.260;2022-11-20T01:26:46;4.63;;;1.27;;
20008;SDS011;10165;42.662;23.260;2022-11-20T01:29:16;1.50;;;1.13;;
20008;SDS011;10165;42.662;23.260;2022-11-20T01:31:44;1.10;;;0.93;;
20008;SDS011;10165;42.662;23.260;2022-11-20T01:34:18;2.43;;;1.17;;
20008;SDS011;10165;42.662;23.260;2022-11-20T01:36:45;3.10;;;1.30;;
20008;SDS011;10165;42.662;23.260;2022-11-20T01:39:19;3.40;;;1.20;;
20008;SDS011;10165;42.662;23.260;2022-11-20T01:41:50;3.60;;;1.10;;
20008;SDS011;10165;42.662;23.260;2022-11-20T01:44:45;1.37;;;1.20;;
20008;SDS011;10165;42.662;23.260;2022-11-20T01:50:01;1.30;;;1.10;;
20008;SDS011;10165;42.662;23.260;2022-11-20T01:52:36;1.20;;;1.10;;
20008;SDS011;10165;42.662;23.260;2022-11-20T01:55:08;2.73;;;1.30;;
20008;SDS011;10165;42.662;23.260;2022-11-20T01:57:40;1.33;;;1.23;;
20008;SDS011;10165;42.662;23.260;2022-11-20T02:00:08;8.23;;;1.13;;
20008;SDS011;10165;42.662;23.260;2022-11-20T02:02:38;0.83;;;0.83;;
20008;SDS011;10165;42.662;23.260;2022-11-20T02:05:24;2.47;;;1.07;;
20008;SDS011;10165;42.662;23.260;2022-11-20T02:07:58;4.00;;;1.03;;
20008;SDS011;10165;42.662;23.260;2022-11-20T02:10:26;3.27;;;0.87;;
20008;SDS011;10165;42.662;23.260;2022-11-20T02:12:53;1.57;;;1.23;;
20008;SDS011;10165;42.662;23.260;2022-11-20T02:15:38;2.23;;;0.80;;
20008;SDS011;10165;42.662;23.260;2022-11-20T02:18:06;1.97;;;1.10;;
20008;SDS011;10165;42.662;23.260;2022-11-20T02:20:35;1.60;;;1.23;;
20008;SDS011;10165;42.662;23.260;2022-11-20T02:23:03;1.47;;;1.00;;
20008;SDS011;10165;42.662;23.260;2022-11-20T02:25:34;3.50;;;1.30;;
20008;SDS011;10165;42.662;23.260;2022-11-20T02:28:03;3.20;;;1.50;;
20008;SDS011;10165;42.662;23.260;2022-11-20T02:30:31;1.23;;;0.90;;
20008;SDS011;10165;42.662;23.260;2022-11-20T02:32:57;2.57;;;1.00;;
20008;SDS011;10165;42.662;23.260;2022-11-20T02:37:52;2.20;;;1.40;;
20008;SDS011;10165;42.662;23.260;2022-11-20T02:40:21;3.13;;;1.07;;
20008;SDS011;10165;42.662;23.260;2022-11-20T02:42:51;3.07;;;1.00;;
20008;SDS011;10165;42.662;23.260;2022-11-20T02:45:22;1.30;;;1.07;;
20008;SDS011;10165;42.662;23.260;2022-11-20T02:47:49;2.10;;;1.00;;
20008;SDS011;10165;42.662;23.260;2022-11-20T02:50:16;5.20;;;1.27;;
20008;SDS011;10165;42.662;23.260;2022-11-20T02:52:43;4.53;;;1.37;;
20008;SDS011;10165;42.662;23.260;2022-11-20T02:55:10;3.00;;;1.20;;
20008;SDS011;10165;42.662;23.260;2022-11-20T02:57:37;2.90;;;1.30;;
20008;SDS011;10165;42.662;23.260;2022-11-20T03:00:03;6.23;;;1.17;;
20008;SDS011;10165;42.662;23.260;2022-11-20T03:02:31;3.67;;;1.30;;
20008;SDS011;10165;42.662;23.260;2022-11-20T03:04:58;2.23;;;1.17;;
20008;SDS011;10165;42.662;23.260;2022-11-20T03:07:25;2.90;;;1.30;;
20008;SDS011;10165;42.662;23.260;2022-11-20T03:09:52;1.73;;;1.20;;
20008;SDS011;10165;42.662;23.260;2022-11-20T03:12:18;1.43;;;1.30;;
20008;SDS011;10165;42.662;23.260;2022-11-20T03:14:45;2.90;;;1.10;;
20008;SDS011;10165;42.662;23.260;2022-11-20T03:17:18;4.00;;;1.33;;
20008;SDS011;10165;42.662;23.260;2022-11-20T03:19:44;3.63;;;1.50;;
20008;SDS011;10165;42.662;23.260;2022-11-20T03:22:11;8.60;;;1.00;;
20008;SDS011;10165;42.662;23.260;2022-11-20T03:24:37;3.10;;;1.40;;
20008;SDS011;10165;42.662;23.260;2022-11-20T03:27:04;2.40;;;1.30;;
20008;SDS011;10165;42.662;23.260;2022-11-20T03:29:31;1.33;;;1.20;;
20008;SDS011;10165;42.662;23.260;2022-11-20T03:31:58;1.40;;;1.30;;
20008;SDS011;10165;42.662;23.260;2022-11-20T03:34:25;9.20;;;1.60;;
20008;SDS011;10165;42.662;23.260;2022-11-20T03:36:52;2.17;;;1.33;;
20008;SDS011;10165;42.662;23.260;2022-11-20T03:39:18;1.37;;;1.10;;
20008;SDS011;10165;42.662;23.260;2022-11-20T03:41:45;1.53;;;1.27;;
20008;SDS011;10165;42.662;23.260;2022-11-20T03:44:12;3.90;;;1.27;;
20008;SDS011;10165;42.662;23.260;2022-11-20T03:46:39;2.33;;;1.20;;
20008;SDS011;10165;42.662;23.260;2022-11-20T03:49:05;2.00;;;1.00;;
20008;SDS011;10165;42.662;23.260;2022-11-20T03:51:33;1.53;;;0.90;;
20008;SDS011;10165;42.662;23.260;2022-11-20T03:54:04;1.10;;;1.00;;
20008;SDS011;10165;42.662;23.260;2022-11-20T03:56:33;0.83;;;0.83;;
20008;SDS011;10165;42.662;23.260;2022-11-20T03:59:02;2.00;;;0.90;;
20008;SDS011;10165;42.662;23.260;2022-11-20T04:01:31;0.97;;;0.90;;
20008;SDS011;10165;42.662;23.260;2022-11-20T04:03:59;2.67;;;1.67;;
20008;SDS011;10165;42.662;23.260;2022-11-20T04:06:27;1.90;;;1.30;;
20008;SDS011;10165;42.662;23.260;2022-11-20T04:08:56;1.20;;;1.10;;
20008;SDS011;10165;42.662;23.260;2022-11-20T04:11:28;3.30;;;1.10;;
20008;SDS011;10165;42.662;23.260;2022-11-20T04:13:59;2.50;;;1.13;;
20008;SDS011;10165;42.662;23.260;2022-11-20T04:16:31;2.80;;;1.17;;
20008;SDS011;10165;42.662;23.260;2022-11-20T04:19:00;2.30;;;1.27;;
20008;SDS011;10165;42.662;23.260;2022-11-20T04:21:29;8.27;;;1.20;;
20008;SDS011;10165;42.662;23.260;2022-11-20T04:23:55;4.03;;;1.50;;
20008;SDS011;10165;42.662;23.260;2022-11-20T04:26:23;1.37;;;1.07;;
20008;SDS011;10165;42.662;23.260;2022-11-20T04:28:51;1.83;;;1.10;;
20008;SDS011;10165;42.662;23.260;2022-11-20T04:31:22;1.73;;;1.00;;
20008;SDS011;10165;42.662;23.260;2022-11-20T04:33:51;5.07;;;1.47;;
20008;SDS011;10165;42.662;23.260;2022-11-20T04:36:19;1.17;;;0.97;;
20008;SDS011;10165;42.662;23.260;2022-11-20T04:38:51;3.20;;;0.93;;
20008;SDS011;10165;42.662;23.260;2022-11-20T04:41:23;3.37;;;1.10;;
20008;SDS011;10165;42.662;23.260;2022-11-20T04:43:54;3.87;;;1.07;;
20008;SDS011;10165;42.662;23.260;2022-11-20T04:46:28;3.30;;;1.10;;
20008;SDS011;10165;42.662;23.260;2022-11-20T04:48:56;1.10;;;1.00;;
20008;SDS011;10165;42.662;23.260;2022-11-20T04:51:23;3.17;;;1.00;;
20008;SDS011;10165;42.662;23.260;2022-11-20T04:53:50;1.90;;;1.03;;
20008;SDS011;10165;42.662;23.260;2022-11-20T04:56:17;2.00;;;1.33;;
20008;SDS011;10165;42.662;23.260;2022-11-20T04:58:47;1.10;;;0.97;;
20008;SDS011;10165;42.662;23.260;2022-11-20T05:01:16;1.57;;;0.90;;
20008;SDS011;10165;42.662;23.260;2022-11-20T05:03:46;4.07;;;1.00;;
20008;SDS011;10165;42.662;23.260;2022-11-20T05:06:13;4.43;;;1.10;;
20008;SDS011;10165;42.662;23.260;2022-11-20T05:08:42;1.90;;;1.07;;
20008;SDS011;10165;42.662;23.260;2022-11-20T05:11:10;2.37;;;0.90;;
20008;SDS011;10165;42.662;23.260;2022-11-20T05:13:38;2.37;;;0.70;;
20008;SDS011;10165;42.662;23.260;2022-11-20T05:16:10;1.17;;;0.80;;
20008;SDS011;10165;42.662;23.260;2022-11-20T05:18:45;1.47;;;0.97;;
20008;SDS011;10165;42.662;23.260;2022-11-20T05:21:12;0.67;;;0.67;;
20008;SDS011;10165;42.662;23.260;2022-11-20T05:23:40;3.00;;;0.87;;
20008;SDS011;10165;42.662;23.260;2022-11-20T05:26:08;2.20;;;0.87;;
20008;SDS011;10165;42.662;23.260;2022-11-20T05:28:42;1.40;;;0.83;;
20008;SDS011;10165;42.662;23.260;2022-11-20T05:31:10;3.90;;;1.07;;
20008;SDS011;10165;42.662;23.260;2022-11-20T05:33:41;1.07;;;0.77;;
20008;SDS011;10165;42.662;23.260;2022-11-20T05:36:10;4.43;;;1.17;;
20008;SDS011;10165;42.662;23.260;2022-11-20T05:38:37;2.57;;;1.20;;
20008;SDS011;10165;42.662;23.260;2022-11-20T05:41:05;0.93;;;0.93;;
20008;SDS011;10165;42.662;23.260;2022-11-20T05:43:40;1.00;;;1.00;;
20008;SDS011;10165;42.662;23.260;2022-11-20T05:46:09;2.77;;;1.00;;
20008;SDS011;10165;42.662;23.260;2022-11-20T05:48:38;1.57;;;0.77;;
20008;SDS011;10165;42.662;23.260;2022-11-20T05:51:07;3.70;;;0.90;;
20008;SDS011;10165;42.662;23.260;2022-11-20T05:53:34;1.27;;;0.80;;
20008;SDS011;10165;42.662;23.260;2022-11-20T05:56:12;3.80;;;1.00;;
20008;SDS011;10165;42.662;23.260;2022-11-20T05:58:41;1.50;;;1.17;;
20008;SDS011;10165;42.662;23.260;2022-11-20T06:01:12;1.10;;;0.90;;
20008;SDS011;10165;42.662;23.260;2022-11-20T06:04:09;4.13;;;1.27;;
20008;SDS011;10165;42.662;23.260;2022-11-20T06:06:36;6.37;;;1.20;;
20008;SDS011;10165;42.662;23.260;2022-11-20T06:09:02;2.10;;;1.20;;
20008;SDS011;10165;42.662;23.260;2022-11-20T06:11:29;1.10;;;0.90;;
20008;SDS011;10165;42.662;23.260;2022-11-20T06:13:56;1.60;;;1.00;;
20008;SDS011;10165;42.662;23.260;2022-11-20T06:16:22;2.17;;;1.00;;
20008;SDS011;10165;42.662;23.260;2022-11-20T06:18:49;2.10;;;1.00;;
20008;SDS011;10165;42.662;23.260;2022-11-20T06:21:17;2.33;;;1.07;;
20008;SDS011;10165;42.662;23.260;2022-11-20T06:23:46;0.90;;;0.87;;
20008;SDS011;10165;42.662;23.260;2022-11-20T06:26:14;0.93;;;0.90;;
20008;SDS011;10165;42.662;23.260;2022-11-20T06:28:43;4.10;;;1.00;;
20008;SDS011;10165;42.662;23.260;2022-11-20T06:31:10;1.57;;;1.17;;
20008;SDS011;10165;42.662;23.260;2022-11-20T06:33:39;1.73;;;1.20;;
20008;SDS011;10165;42.662;23.260;2022-11-20T06:36:07;0.93;;;0.87;;
20008;SDS011;10165;42.662;23.260;2022-11-20T06:38:39;2.40;;;0.90;;
20008;SDS011;10165;42.662;23.260;2022-11-20T06:41:20;1.30;;;1.07;;
20008;SDS011;10165;42.662;23.260;2022-11-20T06:43:48;2.30;;;0.80;;
20008;SDS011;10165;42.662;23.260;2022-11-20T06:46:15;1.17;;;1.07;;
20008;SDS011;10165;42.662;23.260;2022-11-20T06:48:47;2.30;;;1.13;;
20008;SDS011;10165;42.662;23.260;2022-11-20T06:51:14;0.87;;;0.80;;
20008;SDS011;10165;42.662;23.260;2022-11-20T06:53:41;3.03;;;0.90;;
20008;SDS011;10165;42.662;23.260;2022-11-20T06:56:08;1.63;;;0.80;;
20008;SDS011;10165;42.662;23.260;2022-11-20T06:58:35;1.83;;;1.00;;
20008;SDS011;10165;42.662;23.260;2022-11-20T07:01:07;1.10;;;1.00;;
20008;SDS011;10165;42.662;23.260;2022-11-20T07:03:36;2.73;;;1.17;;
20008;SDS011;10165;42.662;23.260;2022-11-20T07:06:03;1.33;;;1.13;;
20008;SDS011;10165;42.662;23.260;2022-11-20T07:08:31;4.17;;;1.27;;
20008;SDS011;10165;42.662;23.260;2022-11-20T07:10:59;3.13;;;1.00;;
20008;SDS011;10165;42.662;23.260;2022-11-20T07:13:27;2.00;;;1.33;;
20008;SDS011;10165;42.662;23.260;2022-11-20T07:15:55;2.80;;;1.17;;
20008;SDS011;10165;42.662;23.260;2022-11-20T07:18:25;1.17;;;0.90;;
20008;SDS011;10165;42.662;23.260;2022-11-20T07:20:51;4.40;;;1.13;;
20008;SDS011;10165;42.662;23.260;2022-11-20T07:23:18;2.37;;;1.00;;
20008;SDS011;10165;42.662;23.260;2022-11-20T07:25:45;4.60;;;1.50;;
20008;SDS011;10165;42.662;23.260;2022-11-20T07:28:11;2.30;;;0.80;;
20008;SDS011;10165;42.662;23.260;2022-11-20T07:30:38;2.77;;;1.00;;
20008;SDS011;10165;42.662;23.260;2022-11-20T07:33:05;2.93;;;1.10;;
20008;SDS011;10165;42.662;23.260;2022-11-20T07:35:31;2.30;;;1.10;;
20008;SDS011;10165;42.662;23.260;2022-11-20T07:37:59;2.70;;;0.87;;
20008;SDS011;10165;42.662;23.260;2022-11-20T07:40:25;1.40;;;0.93;;
20008;SDS011;10165;42.662;23.260;2022-11-20T07:42:53;2.30;;;1.40;;
20008;SDS011;10165;42.662;23.260;2022-11-20T07:45:22;2.10;;;1.10;;
20008;SDS011;10165;42.662;23.260;2022-11-20T07:47:50;2.37;;;1.50;;
20008;SDS011;10165;42.662;23.260;2022-11-20T07:50:17;1.33;;;0.80;;
20008;SDS011;10165;42.662;23.260;2022-11-20T07:52:45;3.10;;;1.10;;
20008;SDS011;10165;42.662;23.260;2022-11-20T07:55:12;2.17;;;1.10;;
20008;SDS011;10165;42.662;23.260;2022-11-20T07:57:39;4.60;;;1.20;;
20008;SDS011;10165;42.662;23.260;2022-11-20T08:00:07;1.77;;;1.13;;
20008;SDS011;10165;42.662;23.260;2022-11-20T08:02:39;2.63;;;1.10;;
20008;SDS011;10165;42.662;23.260;2022-11-20T08:05:08;1.47;;;1.03;;
20008;SDS011;10165;42.662;23.260;2022-11-20T08:07:36;4.30;;;1.17;;
20008;SDS011;10165;42.662;23.260;2022-11-20T08:10:07;1.83;;;1.10;;
20008;SDS011;10165;42.662;23.260;2022-11-20T08:12:35;2.97;;;1.43;;
20008;SDS011;10165;42.662;23.260;2022-11-20T08:15:21;4.07;;;1.57;;
20008;SDS011;10165;42.662;23.260;2022-11-20T08:17:48;3.27;;;1.20;;
20008;SDS011;10165;42.662;23.260;2022-11-20T08:20:34;2.50;;;1.10;;
20008;SDS011;10165;42.662;23.260;2022-11-20T08:23:02;2.30;;;1.20;;
20008;SDS011;10165;42.662;23.260;2022-11-20T08:25:34;4.47;;;1.23;;
20008;SDS011;10165;42.662;23.260;2022-11-20T08:28:04;4.77;;;1.47;;
20008;SDS011;10165;42.662;23.260;2022-11-20T08:30:45;5.83;;;1.93;;
20008;SDS011;10165;42.662;23.260;2022-11-20T08:33:12;4.43;;;2.00;;
20008;SDS011;10165;42.662;23.260;2022-11-20T08:35:39;7.43;;;2.50;;
20008;SDS011;10165;42.662;23.260;2022-11-20T08:38:08;1.87;;;1.53;;
20008;SDS011;10165;42.662;23.260;2022-11-20T08:40:35;3.23;;;1.60;;
20008;SDS011;10165;42.662;23.260;2022-11-20T08:43:01;4.20;;;2.60;;
20008;SDS011;10165;42.662;23.260;2022-11-20T08:45:28;3.60;;;2.20;;
20008;SDS011;10165;42.662;23.260;2022-11-20T08:48:00;4.17;;;1.80;;
20008;SDS011;10165;42.662;23.260;2022-11-20T08:50:28;3.87;;;1.70;;
20008;SDS011;10165;42.662;23.260;2022-11-20T08:53:04;3.37;;;1.83;;
20008;SDS011;10165;42.662;23.260;2022-11-20T08:55:31;4.80;;;2.10;;
20008;SDS011;10165;42.662;23.260;2022-11-20T08:57:58;5.13;;;2.37;;
20008;SDS011;10165;42.662;23.260;2022-11-20T09:00:24;8.43;;;2.17;;
20008;SDS011;10165;42.662;23.260;2022-11-20T09:02:51;4.87;;;2.10;;
20008;SDS011;10165;42.662;23.260;2022-11-20T09:05:18;4.50;;;2.30;;
20008;SDS011;10165;42.662;23.260;2022-11-20T09:07:45;7.00;;;2.27;;
20008;SDS011;10165;42.662;23.260;2022-11-20T09:10:12;2.20;;;1.70;;
20008;SDS011;10165;42.662;23.260;2022-11-20T09:12:54;3.23;;;1.63;;
20008;SDS011;10165;42.662;23.260;2022-11-20T09:15:22;4.17;;;2.20;;
20008;SDS011;10165;42.662;23.260;2022-11-20T09:17:56;5.40;;;2.10;;
20008;SDS011;10165;42.662;23.260;2022-11-20T09:20:27;4.50;;;1.80;;
20008;SDS011;10165;42.662;23.260;2022-11-20T09:22:55;1.30;;;1.10;;
20008;SDS011;10165;42.662;23.260;2022-11-20T09:25:23;3.10;;;1.10;;
20008;SDS011;10165;42.662;23.260;2022-11-20T09:27:59;2.77;;;1.10;;
20008;SDS011;10165;42.662;23.260;2022-11-20T09:30:26;2.83;;;1.47;;
20008;SDS011;10165;42.662;23.260;2022-11-20T09:32:53;3.20;;;1.40;;
20008;SDS011;10165;42.662;23.260;2022-11-20T09:35:20;2.80;;;1.50;;
20008;SDS011;10165;42.662;23.260;2022-11-20T09:37:46;4.07;;;1.60;;
20008;SDS011;10165;42.662;23.260;2022-11-20T09:40:19;4.23;;;1.57;;
20008;SDS011;10165;42.662;23.260;2022-11-20T09:42:55;4.50;;;1.43;;
20008;SDS011;10165;42.662;23.260;2022-11-20T09:48:12;2.77;;;1.50;;
20008;SDS011;10165;42.662;23.260;2022-11-20T09:56:19;22.20;;;13.67;;
20008;SDS011;10165;42.662;23.260;2022-11-20T09:58:51;5.93;;;3.87;;
20008;SDS011;10165;42.662;23.260;2022-11-20T10:01:26;5.57;;;2.40;;
20008;SDS011;10165;42.662;23.260;2022-11-20T10:04:31;3.27;;;2.00;;
20008;SDS011;10165;42.662;23.260;2022-11-20T10:09:59;5.30;;;2.00;;
20008;SDS011;10165;42.662;23.260;2022-11-20T10:12:49;3.87;;;2.43;;
20008;SDS011;10165;42.662;23.260;2022-11-20T10:15:34;10.33;;;2.40;;
20008;SDS011;10165;42.662;23.260;2022-11-20T10:18:27;11.20;;;3.70;;
20008;SDS011;10165;42.662;23.260;2022-11-20T10:21:03;3.70;;;2.37;;
20008;SDS011;10165;42.662;23.260;2022-11-20T10:31:36;3.20;;;2.20;;
20008;SDS011;10165;42.662;23.260;2022-11-20T10:34:07;4.87;;;2.70;;
20008;SDS011;10165;42.662;23.260;2022-11-20T10:36:58;5.67;;;2.50;;
20008;SDS011;10165;42.662;23.260;2022-11-20T10:42:08;8.20;;;2.83;;
20008;SDS011;10165;42.662;23.260;2022-11-20T10:44:42;9.77;;;3.00;;
20008;SDS011;10165;42.662;23.260;2022-11-20T10:47:31;7.63;;;2.70;;
20008;SDS011;10165;42.662;23.260;2022-11-20T10:50:02;10.03;;;3.90;;
20008;SDS011;10165;42.662;23.260;2022-11-20T10:55:43;8.57;;;3.70;;
20008;SDS011;10165;42.662;23.260;2022-11-20T10:58:14;14.00;;;3.70;;
20008;SDS011;10165;42.662;23.260;2022-11-20T11:00:45;5.67;;;3.57;;
20008;SDS011;10165;42.662;23.260;2022-11-20T11:03:26;10.83;;;3.20;;
20008;SDS011;10165;42.662;23.260;2022-11-20T11:05:56;5.37;;;2.23;;
20008;SDS011;10165;42.662;23.260;2022-11-20T11:08:26;2.57;;;1.70;;
20008;SDS011;10165;42.662;23.260;2022-11-20T11:10:59;1.37;;;1.00;;
20008;SDS011;10165;42.662;23.260;2022-11-20T11:13:29;3.63;;;1.00;;
20008;SDS011;10165;42.662;23.260;2022-11-20T11:15:57;2.83;;;1.03;;
20008;SDS011;10165;42.662;23.260;2022-11-20T11:20:54;1.13;;;0.80;;
20008;SDS011;10165;42.662;23.260;2022-11-20T11:23:32;1.33;;;0.90;;
20008;SDS011;10165;42.662;23.260;2022-11-20T11:26:03;1.67;;;0.93;;
20008;SDS011;10165;42.662;23.260;2022-11-20T11:28:32;3.00;;;1.03;;
20008;SDS011;10165;42.662;23.260;2022-11-20T11:30:59;2.63;;;1.00;;
20008;SDS011;10165;42.662;23.260;2022-11-20T11:36:00;4.27;;;0.90;;
20008;SDS011;10165;42.662;23.260;2022-11-20T11:38:37;0.70;;;0.70;;
20008;SDS011;10165;42.662;23.260;2022-11-20T11:41:06;3.27;;;1.00;;
20008;SDS011;10165;42.662;23.260;2022-11-20T11:43:36;2.23;;;0.80;;
20008;SDS011;10165;42.662;23.260;2022-11-20T11:46:32;0.67;;;0.60;;
20008;SDS011;10165;42.662;23.260;2022-11-20T12:00:21;3.10;;;1.00;;
20008;SDS011;10165;42.662;23.260;2022-11-20T12:02:52;3.33;;;0.87;;
20008;SDS011;10165;42.662;23.260;2022-11-20T12:13:01;0.87;;;0.80;;
20008;SDS011;10165;42.662;23.260;2022-11-20T12:15:31;3.47;;;1.13;;
20008;SDS011;10165;42.662;23.260;2022-11-20T12:18:00;1.53;;;0.90;;
20008;SDS011;10165;42.662;23.260;2022-11-20T12:20:32;0.93;;;0.87;;
20008;SDS011;10165;42.662;23.260;2022-11-20T12:26:06;1.27;;;0.87;;
20008;SDS011;10165;42.662;23.260;2022-11-20T12:39:50;2.90;;;0.70;;
20008;SDS011;10165;42.662;23.260;2022-11-20T12:45:15;5.87;;;1.20;;
20008;SDS011;10165;42.662;23.260;2022-11-20T12:50:56;0.73;;;0.73;;
20008;SDS011;10165;42.662;23.260;2022-11-20T12:53:58;2.37;;;1.43;;
20008;SDS011;10165;42.662;23.260;2022-11-20T13:02:27;2.03;;;1.50;;
20008;SDS011;10165;42.662;23.260;2022-11-20T13:08:04;1.07;;;0.70;;
20008;SDS011;10165;42.662;23.260;2022-11-20T13:10:45;2.40;;;1.63;;
20008;SDS011;10165;42.662;23.260;2022-11-20T13:16:16;6.93;;;2.83;;
20008;SDS011;10165;42.662;23.260;2022-11-20T13:18:50;4.97;;;2.07;;
20008;SDS011;10165;42.662;23.260;2022-11-20T13:21:18;7.03;;;2.63;;
20008;SDS011;10165;42.662;23.260;2022-11-20T13:23:48;7.97;;;3.50;;
20008;SDS011;10165;42.662;23.260;2022-11-20T13:26:16;7.23;;;2.70;;
20008;SDS011;10165;42.662;23.260;2022-11-20T13:28:59;8.67;;;4.70;;
20008;SDS011;10165;42.662;23.260;2022-11-20T13:31:38;9.73;;;3.87;;
20008;SDS011;10165;42.662;23.260;2022-11-20T13:34:11;8.20;;;5.13;;
20008;SDS011;10165;42.662;23.260;2022-11-20T13:36:51;10.23;;;4.47;;
20008;SDS011;10165;42.662;23.260;2022-11-20T13:39:26;9.47;;;5.40;;
20008;SDS011;10165;42.662;23.260;2022-11-20T13:41:55;13.20;;;5.97;;
20008;SDS011;10165;42.662;23.260;2022-11-20T13:44:29;10.30;;;5.23;;
20008;SDS011;10165;42.662;23.260;2022-11-20T13:46:57;9.43;;;5.33;;
20008;SDS011;10165;42.662;23.260;2022-11-20T13:49:29;12.27;;;5.47;;
20008;SDS011;10165;42.662;23.260;2022-11-20T14:00:28;5.73;;;2.87;;
20008;SDS011;10165;42.662;23.260;2022-11-20T14:05:34;5.57;;;3.00;;
20008;SDS011;10165;42.662;23.260;2022-11-20T14:08:27;4.33;;;1.70;;
20008;SDS011;10165;42.662;23.260;2022-11-20T14:11:19;2.47;;;1.60;;
20008;SDS011;10165;42.662;23.260;2022-11-20T14:16:22;5.10;;;2.50;;
20008;SDS011;10165;42.662;23.260;2022-11-20T14:18:49;6.90;;;4.23;;
20008;SDS011;10165;42.662;23.260;2022-11-20T14:21:26;6.63;;;3.70;;
20008;SDS011;10165;42.662;23.260;2022-11-20T14:24:04;10.10;;;4.90;;
20008;SDS011;10165;42.662;23.260;2022-11-20T14:26:32;9.43;;;3.73;;
20008;SDS011;10165;42.662;23.260;2022-11-20T14:29:00;6.30;;;4.10;;
20008;SDS011;10165;42.662;23.260;2022-11-20T14:31:27;6.70;;;4.30;;
20008;SDS011;10165;42.662;23.260;2022-11-20T14:33:54;6.03;;;4.40;;
20008;SDS011;10165;42.662;23.260;2022-11-20T14:36:23;10.37;;;4.13;;
20008;SDS011;10165;42.662;23.260;2022-11-20T14:38:51;5.07;;;2.87;;
20008;SDS011;10165;42.662;23.260;2022-11-20T14:41:20;4.83;;;2.57;;
20008;SDS011;10165;42.662;23.260;2022-11-20T14:43:57;2.03;;;1.40;;
20008;SDS011;10165;42.662;23.260;2022-11-20T14:46:26;1.37;;;1.27;;
20008;SDS011;10165;42.662;23.260;2022-11-20T14:48:54;1.50;;;1.40;;
20008;SDS011;10165;42.662;23.260;2022-11-20T14:51:44;1.20;;;1.10;;
20008;SDS011;10165;42.662;23.260;2022-11-20T14:54:12;4.80;;;2.00;;
20008;SDS011;10165;42.662;23.260;2022-11-20T14:56:42;8.40;;;2.60;;
20008;SDS011;10165;42.662;23.260;2022-11-20T14:59:26;2.13;;;1.60;;
20008;SDS011;10165;42.662;23.260;2022-11-20T15:02:01;2.93;;;1.90;;
20008;SDS011;10165;42.662;23.260;2022-11-20T15:04:45;3.90;;;2.63;;
20008;SDS011;10165;42.662;23.260;2022-11-20T15:07:37;5.00;;;2.87;;
20008;SDS011;10165;42.662;23.260;2022-11-20T15:10:08;5.47;;;2.97;;
20008;SDS011;10165;42.662;23.260;2022-11-20T15:12:38;8.77;;;2.67;;
20008;SDS011;10165;42.662;23.260;2022-11-20T15:15:15;4.53;;;2.23;;
20008;SDS011;10165;42.662;23.260;2022-11-20T15:17:47;6.50;;;3.57;;
20008;SDS011;10165;42.662;23.260;2022-11-20T15:20:14;10.60;;;4.43;;
20008;SDS011;10165;42.662;23.260;2022-11-20T15:22:43;6.50;;;2.90;;
20008;SDS011;10165;42.662;23.260;2022-11-20T15:25:16;12.90;;;5.67;;
20008;SDS011;10165;42.662;23.260;2022-11-20T15:27:44;11.23;;;5.67;;
20008;SDS011;10165;42.662;23.260;2022-11-20T15:30:15;4.97;;;2.30;;
20008;SDS011;10165;42.662;23.260;2022-11-20T15:32:46;10.70;;;5.27;;
20008;SDS011;10165;42.662;23.260;2022-11-20T15:35:14;27.97;;;15.03;;
20008;SDS011;10165;42.662;23.260;2022-11-20T15:37:42;8.97;;;5.60;;
20008;SDS011;10165;42.662;23.260;2022-11-20T15:40:14;10.30;;;6.37;;
20008;SDS011;10165;42.662;23.260;2022-11-20T15:42:41;6.63;;;3.83;;
20008;SDS011;10165;42.662;23.260;2022-11-20T15:45:36;4.63;;;1.90;;
20008;SDS011;10165;42.662;23.260;2022-11-20T15:48:03;2.90;;;1.27;;
20008;SDS011;10165;42.662;23.260;2022-11-20T15:50:38;5.30;;;3.13;;
20008;SDS011;10165;42.662;23.260;2022-11-20T15:53:13;4.80;;;3.63;;
20008;SDS011;10165;42.662;23.260;2022-11-20T15:55:40;5.00;;;2.87;;
20008;SDS011;10165;42.662;23.260;2022-11-20T15:58:09;5.27;;;2.97;;
20008;SDS011;10165;42.662;23.260;2022-11-20T16:00:36;7.03;;;3.70;;
20008;SDS011;10165;42.662;23.260;2022-11-20T16:03:02;4.33;;;2.27;;
20008;SDS011;10165;42.662;23.260;2022-11-20T16:05:29;3.97;;;2.53;;
20008;SDS011;10165;42.662;23.260;2022-11-20T16:07:56;4.50;;;3.03;;
20008;SDS011;10165;42.662;23.260;2022-11-20T16:10:23;4.90;;;2.40;;
20008;SDS011;10165;42.662;23.260;2022-11-20T16:12:50;3.30;;;2.50;;
20008;SDS011;10165;42.662;23.260;2022-11-20T16:15:36;4.10;;;2.30;;
20008;SDS011;10165;42.662;23.260;2022-11-20T16:18:21;26.37;;;12.93;;
20008;SDS011;10165;42.662;23.260;2022-11-20T16:20:51;30.60;;;15.97;;
20008;SDS011;10165;42.662;23.260;2022-11-20T16:23:19;17.80;;;8.47;;
20008;SDS011;10165;42.662;23.260;2022-11-20T16:25:47;4.23;;;2.80;;
20008;SDS011;10165;42.662;23.260;2022-11-20T16:28:14;3.67;;;2.00;;
20008;SDS011;10165;42.662;23.260;2022-11-20T16:30:44;5.20;;;3.17;;
20008;SDS011;10165;42.662;23.260;2022-11-20T16:33:12;9.30;;;5.87;;